createdAt,value
2019-04-26T00:01:51.497Z,1.45
2019-04-26T00:06:48.940Z,1.57
2019-04-26T00:09:18.791Z,0.95
2019-04-26T00:11:48.656Z,1.07
2019-04-26T00:14:34.799Z,1.02
2019-04-26T00:17:07.627Z,1.32
2019-04-26T00:19:37.289Z,1.60
2019-04-26T00:22:06.455Z,1.32
2019-04-26T00:24:34.922Z,1.15
2019-04-26T00:27:03.783Z,0.90
2019-04-26T00:29:32.019Z,1.17
2019-04-26T00:32:00.751Z,1.42
2019-04-26T00:34:28.950Z,1.20
2019-04-26T00:36:57.176Z,1.60
2019-04-26T00:39:25.400Z,1.40
2019-04-26T00:41:53.928Z,1.55
2019-04-26T00:44:22.851Z,1.40
2019-04-26T00:46:51.142Z,1.37
2019-04-26T00:49:21.355Z,1.70
2019-04-26T00:51:49.649Z,1.85
2019-04-26T00:54:18.646Z,1.67
2019-04-26T00:56:47.204Z,1.50
2019-04-26T00:59:16.394Z,1.80
2019-04-26T01:01:47.395Z,1.30
2019-04-26T01:04:16.997Z,1.42
2019-04-26T01:06:47.159Z,1.80
2019-04-26T01:09:16.064Z,1.80
2019-04-26T01:11:45.275Z,1.80
2019-04-26T01:14:13.502Z,1.50
2019-04-26T01:16:41.800Z,1.30
2019-04-26T01:19:11.261Z,1.30
2019-04-26T01:21:45.649Z,1.32
2019-04-26T01:24:13.882Z,1.47
2019-04-26T01:26:42.105Z,1.02
2019-04-26T01:29:11.943Z,1.30
2019-04-26T01:31:54.866Z,1.50
2019-04-26T01:34:24.161Z,1.30
2019-04-26T01:36:52.673Z,1.47
2019-04-26T01:39:22.438Z,1.70
2019-04-26T01:41:58.534Z,2.10
2019-04-26T01:44:39.324Z,1.60
2019-04-26T01:47:07.933Z,1.77
2019-04-26T01:49:36.148Z,1.85
2019-04-26T01:52:09.646Z,1.82
2019-04-26T01:54:43.012Z,1.45
2019-04-26T01:57:11.539Z,1.57
2019-04-26T01:59:42.832Z,1.92
2019-04-26T02:02:18.467Z,1.37
2019-04-26T02:04:48.369Z,1.92
2019-04-26T02:07:18.226Z,1.52
2019-04-26T02:09:46.450Z,1.70
2019-04-26T02:12:15.207Z,1.80
2019-04-26T02:14:43.448Z,1.60
2019-04-26T02:17:11.687Z,1.62
2019-04-26T02:19:39.920Z,1.42
2019-04-26T02:22:10.195Z,1.45
2019-04-26T02:24:40.083Z,1.70
2019-04-26T02:27:09.940Z,1.72
2019-04-26T02:29:38.273Z,1.12
2019-04-26T02:32:07.735Z,1.37
2019-04-26T02:34:37.849Z,1.67
2019-04-26T02:37:06.877Z,1.70
2019-04-26T02:39:38.182Z,1.85
2019-04-26T02:42:09.012Z,1.65
2019-04-26T02:44:41.080Z,1.50
2019-04-26T02:47:38.914Z,1.92
2019-04-26T02:50:11.427Z,1.40
2019-04-26T02:52:45.699Z,1.70
2019-04-26T02:55:17.171Z,1.47
2019-04-26T02:57:48.746Z,1.90
2019-04-26T03:00:18.872Z,2.02
2019-04-26T03:02:50.198Z,1.50
2019-04-26T03:05:18.425Z,1.95
2019-04-26T03:07:49.543Z,1.55
2019-04-26T03:10:17.781Z,1.98
2019-04-26T03:12:45.984Z,1.40
2019-04-26T03:15:25.526Z,1.75
2019-04-26T03:17:58.639Z,1.80
2019-04-26T03:20:36.321Z,1.80
2019-04-26T03:23:40.986Z,2.27
2019-04-26T03:26:01.707Z,1.80
2019-04-26T03:28:37.647Z,1.50
2019-04-26T03:31:11.766Z,1.62
2019-04-26T03:34:05.745Z,1.70
2019-04-26T03:36:43.968Z,1.70
2019-04-26T03:39:19.905Z,1.70
2019-04-26T03:42:26.171Z,2.02
2019-04-26T03:45:15.449Z,2.00
2019-04-26T03:47:52.834Z,2.42
2019-04-26T03:50:24.311Z,1.90
2019-04-26T03:53:12.576Z,2.50
2019-04-26T03:55:45.695Z,2.20
2019-04-26T04:01:39.421Z,2.87
2019-04-26T04:04:25.748Z,3.02
2019-04-26T04:07:03.672Z,3.27
2019-04-26T04:09:23.917Z,2.95
2019-04-26T04:12:10.800Z,3.20
2019-04-26T04:14:45.089Z,3.10
2019-04-26T04:17:18.705Z,3.55
2019-04-26T04:19:55.467Z,3.35
2019-04-26T04:22:23.754Z,4.33
2019-04-26T04:25:05.147Z,3.40
2019-04-26T04:27:58.450Z,3.50
2019-04-26T04:30:35.404Z,3.15
2019-04-26T04:33:13.884Z,3.77
2019-04-26T04:35:49.291Z,3.67
2019-04-26T04:38:51.155Z,3.87
2019-04-26T04:41:33.285Z,4.22
2019-04-26T04:44:21.512Z,3.27
2019-04-26T04:46:57.544Z,3.80
2019-04-26T04:49:42.991Z,3.65
2019-04-26T04:52:37.164Z,3.90
2019-04-26T04:55:30.308Z,4.17
2019-04-26T04:58:26.014Z,4.12
2019-04-26T05:01:10.797Z,4.35
2019-04-26T05:04:03.637Z,4.45
2019-04-26T05:06:53.435Z,5.50
2019-04-26T05:09:39.980Z,5.85
2019-04-26T05:12:29.531Z,5.40
2019-04-26T05:15:08.960Z,6.62
2019-04-26T05:17:49.637Z,6.25
2019-04-26T05:20:29.984Z,5.25
2019-04-26T05:23:25.391Z,5.92
2019-04-26T05:26:07.376Z,6.80
2019-04-26T05:28:56.880Z,5.85
2019-04-26T05:31:32.288Z,5.90
2019-04-26T05:34:04.991Z,6.47
2019-04-26T05:36:44.985Z,5.47
2019-04-26T05:39:26.135Z,6.08
2019-04-26T05:42:31.812Z,6.85
2019-04-26T05:45:50.018Z,7.65
2019-04-26T05:48:35.608Z,7.35
2019-04-26T05:51:27.573Z,6.42
2019-04-26T05:54:34.711Z,7.12
2019-04-26T05:57:11.042Z,6.90
2019-04-26T05:59:48.623Z,7.65
2019-04-26T06:02:24.890Z,8.68
2019-04-26T06:05:20.211Z,7.47
2019-04-26T06:08:13.574Z,5.90
2019-04-26T06:10:49.398Z,5.83
2019-04-26T06:13:31.014Z,5.70
2019-04-26T06:16:16.179Z,6.15
2019-04-26T06:19:03.926Z,6.03
2019-04-26T06:21:38.052Z,7.10
2019-04-26T06:24:30.341Z,6.65
2019-04-26T06:27:13.144Z,7.53
2019-04-26T06:29:59.211Z,7.60
2019-04-26T06:32:30.698Z,7.40
2019-04-26T06:35:08.627Z,7.17
2019-04-26T06:38:03.916Z,7.08
2019-04-26T06:40:48.639Z,6.03
2019-04-26T06:43:26.383Z,5.70
2019-04-26T06:46:40.010Z,5.30
2019-04-26T06:49:25.092Z,5.33
2019-04-26T06:52:14.956Z,6.22
2019-04-26T06:54:56.271Z,5.37
2019-04-26T06:58:04.886Z,4.35
2019-04-26T07:01:01.783Z,4.90
2019-04-26T07:03:51.441Z,4.97
2019-04-26T07:06:34.514Z,5.33
2019-04-26T07:09:08.830Z,5.53
2019-04-26T07:12:14.768Z,5.45
2019-04-26T07:15:05.764Z,5.67
2019-04-26T07:17:40.059Z,4.37
2019-04-26T07:20:28.579Z,5.70
2019-04-26T07:23:16.737Z,6.72
2019-04-26T07:26:14.080Z,6.78
2019-04-26T07:28:57.636Z,8.65
2019-04-26T07:31:43.911Z,9.35
2019-04-26T07:34:40.216Z,9.58
2019-04-26T07:37:29.832Z,7.90
2019-04-26T07:40:29.893Z,6.22
2019-04-26T07:43:26.058Z,6.00
2019-04-26T07:46:17.050Z,6.22
2019-04-26T07:49:12.547Z,5.35
2019-04-26T07:52:13.332Z,4.10
2019-04-26T07:55:11.408Z,4.00
2019-04-26T07:58:17.027Z,3.40
2019-04-26T08:00:53.142Z,3.45
2019-04-26T08:03:41.555Z,2.87
2019-04-26T08:06:13.725Z,2.35
2019-04-26T08:08:48.151Z,2.52
2019-04-26T08:11:25.632Z,2.92
2019-04-26T08:14:15.218Z,2.65
2019-04-26T08:16:57.111Z,2.08
2019-04-26T08:19:26.247Z,2.30
2019-04-26T08:21:55.600Z,2.92
2019-04-26T08:24:27.996Z,3.42
2019-04-26T08:27:08.731Z,2.80
2019-04-26T08:29:33.305Z,2.70
2019-04-26T08:32:03.405Z,3.17
2019-04-26T08:34:33.847Z,2.10
2019-04-26T08:37:06.685Z,1.85
2019-04-26T08:39:44.930Z,1.80
2019-04-26T08:42:12.065Z,1.62
2019-04-26T08:44:56.246Z,1.40
2019-04-26T08:47:46.066Z,1.90
2019-04-26T08:50:31.415Z,1.60
2019-04-26T08:53:02.223Z,1.85
2019-04-26T08:55:30.447Z,1.95
2019-04-26T08:58:02.233Z,1.95
2019-04-26T09:00:38.338Z,2.30
2019-04-26T09:03:11.761Z,2.67
2019-04-26T09:05:58.224Z,2.40
2019-04-26T09:08:29.173Z,2.70
2019-04-26T09:10:58.808Z,2.85
2019-04-26T09:13:29.226Z,2.20
2019-04-26T09:16:08.284Z,3.20
2019-04-26T09:18:43.685Z,3.22
2019-04-26T09:21:07.411Z,2.77
2019-04-26T09:23:52.034Z,2.52
2019-04-26T09:26:28.352Z,2.90
2019-04-26T09:29:15.588Z,2.47
2019-04-26T09:31:45.542Z,3.60
2019-04-26T09:34:15.743Z,4.37
2019-04-26T09:36:45.029Z,3.62
2019-04-26T09:39:14.597Z,3.35
2019-04-26T09:41:43.100Z,3.15
2019-04-26T09:44:24.771Z,2.77
2019-04-26T09:47:00.713Z,3.05
2019-04-26T09:49:31.433Z,2.50
2019-04-26T09:52:01.205Z,2.33
2019-04-26T09:54:30.177Z,2.60
2019-04-26T09:56:58.465Z,2.17
2019-04-26T09:59:27.191Z,2.37
2019-04-26T10:01:59.450Z,1.92
2019-04-26T10:04:25.663Z,3.60
2019-04-26T10:06:59.389Z,2.33
2019-04-26T10:09:26.801Z,2.40
2019-04-26T10:11:56.670Z,2.27
2019-04-26T10:14:43.223Z,2.55
2019-04-26T10:17:19.099Z,1.95
2019-04-26T10:19:49.415Z,1.82
2019-04-26T10:22:18.184Z,1.35
2019-04-26T10:24:46.934Z,3.25
2019-04-26T10:27:17.233Z,2.65
2019-04-26T10:29:45.487Z,1.98
2019-04-26T10:32:14.191Z,2.20
2019-04-26T10:34:47.250Z,2.00
2019-04-26T10:37:13.700Z,2.00
2019-04-26T10:39:43.712Z,2.37
2019-04-26T10:42:11.919Z,2.72
2019-04-26T10:44:41.116Z,2.20
2019-04-26T10:47:09.648Z,2.47
2019-04-26T10:49:43.620Z,2.42
2019-04-26T10:52:16.976Z,2.30
2019-04-26T10:57:25.888Z,2.72
2019-04-26T10:59:58.244Z,3.35
2019-04-26T11:02:27.697Z,3.95
2019-04-26T11:04:55.917Z,3.30
2019-04-26T11:07:26.496Z,4.58
2019-04-26T11:09:55.047Z,4.03
2019-04-26T11:12:24.095Z,3.85
2019-04-26T11:14:53.229Z,3.83
2019-04-26T11:17:22.815Z,3.02
2019-04-26T11:19:52.061Z,4.67
2019-04-26T11:22:28.891Z,3.98
2019-04-26T11:24:53.789Z,3.37
2019-04-26T11:27:23.200Z,3.02
2019-04-26T11:29:53.938Z,3.15
2019-04-26T11:32:26.009Z,3.45
2019-04-26T11:34:58.176Z,2.98
2019-04-26T11:37:24.711Z,4.17
2019-04-26T11:39:54.012Z,3.75
2019-04-26T11:42:22.803Z,4.37
2019-04-26T11:44:51.117Z,4.70
2019-04-26T11:47:19.356Z,4.50
2019-04-26T11:49:49.997Z,3.77
2019-04-26T11:52:18.579Z,3.52
2019-04-26T11:54:51.320Z,4.67
2019-04-26T11:57:17.467Z,5.33
2019-04-26T11:59:46.253Z,5.50
2019-04-26T12:02:16.106Z,5.03
2019-04-26T12:04:49.532Z,4.42
2019-04-26T12:07:22.758Z,3.67
2019-04-26T12:09:55.312Z,3.62
2019-04-26T12:12:24.280Z,2.83
2019-04-26T12:14:52.575Z,2.80
2019-04-26T12:17:20.828Z,3.05
2019-04-26T12:19:52.273Z,3.00
2019-04-26T12:22:19.171Z,3.62
2019-04-26T12:24:47.826Z,3.87
2019-04-26T12:27:16.253Z,3.95
2019-04-26T12:29:48.248Z,4.47
2019-04-26T12:32:17.216Z,3.20
2019-04-26T12:34:45.648Z,3.62
2019-04-26T12:37:19.963Z,2.98
2019-04-26T12:39:44.292Z,3.08
2019-04-26T12:42:13.826Z,2.92
2019-04-26T12:44:47.030Z,4.53
2019-04-26T12:49:47.202Z,3.40
2019-04-26T12:52:17.398Z,4.80
2019-04-26T12:54:45.579Z,4.65
2019-04-26T12:57:16.202Z,5.00
2019-04-26T12:59:44.654Z,4.10
2019-04-26T13:02:16.558Z,3.60
2019-04-26T13:04:44.530Z,4.45
2019-04-26T13:07:23.760Z,4.20
2019-04-26T13:09:49.444Z,4.75
2019-04-26T13:12:26.048Z,3.87
2019-04-26T13:15:00.984Z,3.98
2019-04-26T13:17:31.345Z,4.35
2019-04-26T13:20:01.735Z,3.87
2019-04-26T13:22:32.061Z,3.75
2019-04-26T13:25:00.087Z,3.45
2019-04-26T13:27:28.353Z,2.70
2019-04-26T13:30:02.552Z,2.60
2019-04-26T13:32:26.819Z,2.98
2019-04-26T13:34:55.264Z,3.08
2019-04-26T13:37:23.864Z,2.67
2019-04-26T13:39:55.264Z,3.70
2019-04-26T13:42:22.303Z,4.65
2019-04-26T13:44:52.338Z,3.17
2019-04-26T13:47:31.436Z,3.77
2019-04-26T13:50:01.337Z,4.58
2019-04-26T13:52:29.624Z,4.47
2019-04-26T13:54:58.108Z,5.08
2019-04-26T13:57:27.344Z,5.05
2019-04-26T13:59:55.603Z,5.30
2019-04-26T14:02:23.972Z,5.75
2019-04-26T14:04:52.261Z,5.87
2019-04-26T14:07:24.565Z,5.47
2019-04-26T14:09:50.543Z,5.15
2019-04-26T14:12:19.174Z,5.35
2019-04-26T14:14:47.798Z,5.85
2019-04-26T14:17:16.560Z,5.87
2019-04-26T14:19:45.293Z,6.00
2019-04-26T14:22:16.569Z,7.15
2019-04-26T14:24:46.487Z,8.23
2019-04-26T14:27:16.707Z,8.95
2019-04-26T14:29:45.279Z,10.18
2019-04-26T14:32:13.794Z,8.75
2019-04-26T14:34:43.809Z,8.00
2019-04-26T14:37:15.575Z,7.97
2019-04-26T14:39:50.115Z,7.80
2019-04-26T14:42:12.152Z,8.13
2019-04-26T14:44:49.152Z,8.68
2019-04-26T14:47:14.923Z,9.23
2019-04-26T14:49:42.938Z,8.30
2019-04-26T14:52:10.652Z,8.98
2019-04-26T14:54:41.427Z,9.93
2019-04-26T14:57:16.914Z,7.22
2019-04-26T14:59:46.705Z,7.67
2019-04-26T15:02:32.815Z,7.17
2019-04-26T15:05:22.231Z,8.63
2019-04-26T15:07:52.846Z,9.70
2019-04-26T15:10:22.386Z,10.85
2019-04-26T15:12:58.544Z,6.30
2019-04-26T15:15:20.839Z,8.00
2019-04-26T15:17:49.170Z,6.10
2019-04-26T15:20:20.883Z,7.33
2019-04-26T15:22:49.914Z,7.42
2019-04-26T15:25:17.746Z,5.60
2019-04-26T15:27:46.162Z,5.65
2019-04-26T15:30:14.436Z,4.75
2019-04-26T15:32:42.745Z,5.40
2019-04-26T15:35:15.541Z,5.00
2019-04-26T15:37:42.266Z,4.45
2019-04-26T15:40:31.898Z,4.58
2019-04-26T15:43:19.119Z,4.10
2019-04-26T15:45:49.035Z,3.27
2019-04-26T15:48:23.026Z,3.12
2019-04-26T15:50:55.675Z,2.55
2019-04-26T15:53:24.100Z,2.90
2019-04-26T15:55:52.588Z,2.20
2019-04-26T15:58:20.858Z,2.30
2019-04-26T16:00:49.191Z,1.95
2019-04-26T16:03:17.623Z,1.82
2019-04-26T16:05:45.970Z,1.85
2019-04-26T16:08:14.288Z,1.87
2019-04-26T16:10:43.028Z,1.70
2019-04-26T16:13:21.468Z,1.77
2019-04-26T16:15:43.572Z,1.87
2019-04-26T16:18:17.018Z,1.92
2019-04-26T16:20:42.848Z,1.60
2019-04-26T16:23:13.297Z,1.45
2019-04-26T16:25:42.848Z,1.60
2019-04-26T16:28:16.018Z,1.22
2019-04-26T16:36:06.126Z,1.60
2019-04-26T16:38:35.375Z,1.50
2019-04-26T16:41:03.952Z,1.40
2019-04-26T16:43:39.646Z,1.30
2019-04-26T16:46:02.500Z,1.77
2019-04-26T16:48:30.852Z,1.25
2019-04-26T16:51:00.869Z,1.77
2019-04-26T16:53:43.887Z,1.60
2019-04-26T16:55:59.266Z,1.67
2019-04-26T16:58:31.064Z,1.32
2019-04-26T17:00:58.619Z,1.60
2019-04-26T17:03:27.183Z,1.70
2019-04-26T17:06:04.926Z,1.92
2019-04-26T17:08:25.782Z,2.50
2019-04-26T17:10:56.675Z,1.82
2019-04-26T17:13:29.782Z,2.17
2019-04-26T17:15:58.300Z,1.70
2019-04-26T17:18:27.034Z,1.67
2019-04-26T17:20:54.331Z,1.77
2019-04-26T17:23:42.572Z,1.70
2019-04-26T17:26:24.467Z,1.55
2019-04-26T17:28:55.531Z,2.05
2019-04-26T17:31:23.740Z,1.90
2019-04-26T17:33:51.992Z,1.92
2019-04-26T17:36:20.278Z,2.08
2019-04-26T17:38:50.426Z,1.70
2019-04-26T17:41:18.544Z,1.85
2019-04-26T17:43:50.491Z,2.20
2019-04-26T17:46:18.184Z,2.27
2019-04-26T17:48:49.459Z,2.60
2019-04-26T17:51:19.451Z,2.55
2019-04-26T17:53:50.602Z,3.55
2019-04-26T17:56:19.182Z,4.22
2019-04-26T17:58:53.676Z,4.08
2019-04-26T18:01:39.911Z,4.58
2019-04-26T18:03:52.172Z,4.40
2019-04-26T18:06:29.028Z,4.22
2019-04-26T18:08:54.209Z,5.10
2019-04-26T18:11:24.582Z,5.40
2019-04-26T18:13:51.289Z,5.42
2019-04-26T18:16:23.120Z,6.65
2019-04-26T18:19:05.143Z,7.17
2019-04-26T18:21:56.028Z,7.50
2019-04-26T18:24:23.422Z,7.72
2019-04-26T18:26:58.888Z,7.87
2019-04-26T18:29:23.739Z,9.63
2019-04-26T18:31:53.521Z,10.00
2019-04-26T18:34:23.209Z,10.98
2019-04-26T18:36:51.722Z,10.93
2019-04-26T18:39:22.814Z,11.30
2019-04-26T18:41:50.206Z,12.37
2019-04-26T18:44:18.716Z,13.45
2019-04-26T18:46:48.620Z,16.05
2019-04-26T18:49:22.501Z,17.62
2019-04-26T18:51:48.264Z,16.65
2019-04-26T18:54:18.858Z,19.52
2019-04-26T18:56:55.856Z,21.00
2019-04-26T18:59:24.206Z,20.55
2019-04-26T19:01:54.977Z,19.55
2019-04-26T19:04:23.724Z,17.20
2019-04-26T19:06:52.151Z,18.23
2019-04-26T19:09:22.094Z,18.05
2019-04-26T19:11:52.397Z,18.57
2019-04-26T19:14:48.757Z,16.75
2019-04-26T19:17:22.088Z,16.48
2019-04-26T19:20:08.503Z,15.70
2019-04-26T19:22:37.963Z,16.45
2019-04-26T19:25:18.783Z,16.60
2019-04-26T19:27:47.313Z,16.37
2019-04-26T19:30:09.266Z,17.37
2019-04-26T19:32:39.617Z,16.73
2019-04-26T19:35:12.089Z,18.23
2019-04-26T19:37:38.064Z,18.52
2019-04-26T19:40:09.075Z,20.97
2019-04-26T19:42:37.155Z,20.48
2019-04-26T19:45:13.548Z,21.35
2019-04-26T19:47:52.113Z,22.50
2019-04-26T19:50:41.989Z,23.80
2019-04-26T19:53:10.405Z,25.35
2019-04-26T19:55:55.771Z,28.52
2019-04-26T19:58:25.669Z,30.25
2019-04-26T20:00:53.961Z,32.05
2019-04-26T20:03:22.242Z,29.15
2019-04-26T20:05:52.766Z,33.45
2019-04-26T20:08:21.521Z,32.70
2019-04-26T20:10:52.049Z,34.48
2019-04-26T20:13:21.961Z,29.42
2019-04-26T20:15:51.433Z,34.63
2019-04-26T20:18:21.407Z,32.93
2019-04-26T20:20:52.006Z,36.38
2019-04-26T20:23:20.045Z,35.60
2019-04-26T20:25:52.901Z,36.38
2019-04-26T20:28:22.658Z,38.10
2019-04-26T20:31:09.107Z,37.75
2019-04-26T20:33:37.767Z,38.67
2019-04-26T20:36:06.107Z,37.13
2019-04-26T20:38:42.863Z,38.75
2019-04-26T20:41:04.652Z,38.25
2019-04-26T20:43:36.868Z,38.65
2019-04-26T20:46:14.574Z,37.05
2019-04-26T20:48:35.574Z,37.42
2019-04-26T20:51:06.670Z,36.42
2019-04-26T20:53:40.073Z,37.63
2019-04-26T20:56:09.442Z,40.20
2019-04-26T20:58:37.461Z,37.40
2019-04-26T21:01:06.293Z,38.10
2019-04-26T21:03:41.942Z,38.20
2019-04-26T21:06:06.190Z,37.28
2019-04-26T21:08:34.523Z,37.05
2019-04-26T21:11:03.282Z,37.50
2019-04-26T21:13:32.483Z,37.45
2019-04-26T21:16:03.618Z,39.48
2019-04-26T21:18:33.644Z,37.00
2019-04-26T21:21:01.505Z,39.30
2019-04-26T21:23:33.628Z,38.33
2019-04-26T21:28:49.111Z,37.90
2019-04-26T21:31:22.363Z,41.37
2019-04-26T21:34:13.864Z,42.62
2019-04-26T21:36:43.756Z,40.65
2019-04-26T21:39:16.188Z,41.37
2019-04-26T21:41:48.366Z,40.38
2019-04-26T21:44:16.112Z,41.70
2019-04-26T21:46:44.380Z,47.80
2019-04-26T21:49:13.627Z,49.35
2019-04-26T21:51:44.717Z,44.95
2019-04-26T21:54:14.375Z,41.58
2019-04-26T21:56:48.570Z,41.60
2019-04-26T21:59:13.806Z,39.50
2019-04-26T22:01:43.482Z,41.48
2019-04-26T22:04:13.314Z,38.33
2019-04-26T22:06:42.283Z,41.00
2019-04-26T22:09:21.908Z,40.60
2019-04-26T22:11:53.944Z,38.17
2019-04-26T22:14:23.629Z,41.35
2019-04-26T22:16:57.480Z,35.33
2019-04-26T22:19:32.244Z,36.90
2019-04-26T22:22:05.765Z,29.50
2019-04-26T22:24:31.457Z,38.08
2019-04-26T22:26:59.707Z,36.80
2019-04-26T22:29:28.935Z,37.28
2019-04-26T22:31:57.939Z,39.15
2019-04-26T22:34:26.215Z,36.95
2019-04-26T22:36:55.507Z,38.00
2019-04-26T22:39:24.563Z,35.73
2019-04-26T22:41:53.504Z,35.35
2019-04-26T22:44:34.051Z,38.10
2019-04-26T22:47:04.831Z,38.58
2019-04-26T22:49:34.938Z,40.28
2019-04-26T22:52:06.330Z,38.40
2019-04-26T22:54:33.554Z,40.00
2019-04-26T22:57:03.789Z,40.20
2019-04-26T22:59:33.804Z,41.33
2019-04-26T23:02:03.476Z,41.02
2019-04-26T23:04:33.045Z,41.58
2019-04-26T23:07:03.426Z,37.78
2019-04-26T23:09:33.292Z,40.95
2019-04-26T23:12:06.004Z,39.80
2019-04-26T23:14:43.758Z,41.10
2019-04-26T23:17:14.115Z,41.77
2019-04-26T23:19:49.453Z,44.75
2019-04-26T23:22:17.043Z,44.15
2019-04-26T23:24:49.226Z,47.67
2019-04-26T23:27:20.559Z,48.75
2019-04-26T23:29:45.903Z,50.03
2019-04-26T23:32:18.183Z,47.03
2019-04-26T23:34:46.127Z,47.20
2019-04-26T23:37:14.403Z,49.30
2019-04-26T23:39:49.285Z,48.35
2019-04-26T23:42:16.477Z,50.28
2019-04-26T23:44:44.088Z,49.42
2019-04-26T23:47:20.989Z,51.42
2019-04-26T23:49:43.399Z,51.85
2019-04-26T23:52:14.585Z,52.08
2019-04-26T23:54:42.799Z,51.60
2019-04-26T23:57:11.062Z,49.60
2019-04-26T23:59:39.719Z,49.00
